Terminal Aerodrome Forecast
Issued by NWS Denver/Boulder, CO

Home | Current Version | Previous Version | Text Only | Print | Product List | Glossary On
Versions: 1 2 3 4 5 6 7 8 9 10 11 12 13 14 15 16 17 18 19 20 21 22 23 24 25 26 27 28 29 30 31 32 33 34 35 36 37 38 39 40 41 42 43 44 45 46 47 48 49 50
496
FTUS45 KBOU 261729
TAFDEN
TAF
KDEN 261729Z 2618/2724 11006KT P6SM FEW080 SCT220
     FM261900 33008KT P6SM SCT080 SCT120
     FM262000 33012KT P6SM SCT080 BKN200
     FM270200 10008KT P6SM BKN080 BKN150
     FM270600 18008KT P6SM BKN080 BKN140
     FM271200 21008KT P6SM BKN070 BKN120 PROB30 2712/2716 -SHRA
     FM271600 31010KT P6SM BKN070 BKN120=

USA.gov is the U.S. government's official web portal to all federal, state and local government web resources and services.